Time;durP1;ratioP1;P1;durP2;ratioP2;P2;SDS_P1;SDS_P2;PMS_P1;PMS_P2;Temp;Humidity;BMP_temperature;BMP_pressure;BME280_temperature;BME280_humidity;BME280_pressure;Samples;Min_cycle;Max_cycle;Signal;HPM_P1;HPM_P2
2021/07/19 00:02:17;;;;;;;10.57;5.97;;;18.20;51.60;;;;;;5075567;28;20388;-77
2021/07/19 00:04:44;;;;;;;9.02;5.95;;;18.30;51.40;;;;;;5076919;28;20380;-76
2021/07/19 00:07:11;;;;;;;8.65;6.05;;;18.40;50.60;;;;;;5074252;28;20756;-75
2021/07/19 00:09:37;;;;;;;12.60;5.93;;;18.40;50.00;;;;;;5075168;28;20876;-75
2021/07/19 00:12:05;;;;;;;9.73;6.82;;;18.40;51.00;;;;;;5074084;28;20517;-76
2021/07/19 00:14:32;;;;;;;13.02;6.63;;;18.40;50.40;;;;;;5074139;28;20475;-77
2021/07/19 00:16:57;;;;;;;13.50;6.95;;;18.30;51.20;;;;;;5074210;28;20384;-77
2021/07/19 00:19:23;;;;;;;9.05;6.47;;;18.20;52.00;;;;;;5074182;28;20392;-76
2021/07/19 00:21:49;;;;;;;7.57;6.50;;;18.20;51.80;;;;;;5074068;28;20392;-76
2021/07/19 00:24:14;;;;;;;12.80;7.38;;;18.20;52.00;;;;;;5079336;28;20403;-76
2021/07/19 00:26:40;;;;;;;12.30;7.20;;;18.10;52.20;;;;;;5081918;28;20385;-77
2021/07/19 00:29:05;;;;;;;12.33;6.87;;;17.90;54.20;;;;;;5083179;28;20391;-77
2021/07/19 00:31:32;;;;;;;9.60;6.63;;;17.80;55.10;;;;;;5082438;28;20391;-76
2021/07/19 00:33:59;;;;;;;13.20;6.50;;;18.00;53.70;;;;;;5069536;28;20385;-76
2021/07/19 00:36:25;;;;;;;12.70;6.95;;;18.00;54.00;;;;;;5070361;28;20895;-77
2021/07/19 00:38:51;;;;;;;14.30;6.90;;;18.00;53.90;;;;;;5079817;28;20396;-78
2021/07/19 00:41:17;;;;;;;11.20;7.67;;;17.80;54.30;;;;;;5079822;28;20827;-77
2021/07/19 00:43:43;;;;;;;13.20;7.30;;;17.70;56.60;;;;;;5082477;28;20396;-77
2021/07/19 00:46:08;;;;;;;10.23;7.30;;;17.60;57.00;;;;;;5086074;28;20387;-76
2021/07/19 00:48:34;;;;;;;10.30;7.13;;;17.50;58.50;;;;;;5086481;28;20415;-77
2021/07/19 00:51:00;;;;;;;15.55;7.40;;;17.70;56.80;;;;;;5082064;28;20387;-77
2021/07/19 00:53:26;;;;;;;10.45;6.75;;;17.80;56.00;;;;;;5075965;28;20407;-75
2021/07/19 00:55:55;;;;;;;9.30;6.80;;;17.70;56.40;;;;;;5084023;28;20484;-78
2021/07/19 00:58:25;;;;;;;17.95;8.30;;;17.70;56.10;;;;;;5081082;28;20399;-76
2021/07/19 01:00:53;;;;;;;11.98;7.50;;;17.60;56.50;;;;;;5073544;28;20388;-77
2021/07/19 01:03:19;;;;;;;12.93;7.22;;;17.50;58.00;;;;;;5072887;28;20396;-76
2021/07/19 01:05:46;;;;;;;14.30;8.10;;;17.60;57.60;;;;;;5072875;28;20380;-75
2021/07/19 01:08:12;;;;;;;13.83;7.87;;;17.40;57.60;;;;;;5072843;28;20757;-75
2021/07/19 01:10:39;;;;;;;13.63;7.00;;;17.50;59.00;;;;;;5072527;28;20437;-75
2021/07/19 01:13:06;;;;;;;12.35;7.00;;;17.40;58.50;;;;;;5072617;28;20467;-75
2021/07/19 01:15:35;;;;;;;14.43;7.72;;;17.50;57.90;;;;;;5072836;28;20405;-75
2021/07/19 01:18:02;;;;;;;12.25;7.22;;;17.40;57.80;;;;;;5071068;28;20400;-76
2021/07/19 01:20:34;;;;;;;14.57;7.80;;;17.40;57.90;;;;;;5072380;28;20394;-76
2021/07/19 01:23:22;;;;;;;13.17;7.50;;;17.40;58.10;;;;;;5072471;28;20411;-76
2021/07/19 01:26:15;;;;;;;11.50;7.95;;;17.40;57.90;;;;;;5072463;28;20744;-76
2021/07/19 01:28:47;;;;;;;10.65;7.38;;;17.30;56.90;;;;;;5072258;28;20702;-76
2021/07/19 01:31:21;;;;;;;13.52;7.00;;;17.20;57.90;;;;;;5071856;28;20383;-76
2021/07/19 01:33:48;;;;;;;12.95;7.50;;;17.30;57.90;;;;;;5063545;28;20397;-76
2021/07/19 01:36:20;;;;;;;11.93;7.70;;;17.20;58.20;;;;;;5060319;28;20383;-78
2021/07/19 01:38:46;;;;;;;11.23;7.35;;;17.10;59.00;;;;;;5074049;28;20459;-76
2021/07/19 01:41:13;;;;;;;12.52;7.22;;;16.80;61.40;;;;;;5073109;28;20398;-76
2021/07/19 01:43:40;;;;;;;12.18;7.50;;;16.60;64.30;;;;;;5070405;28;20494;-76
2021/07/19 01:46:06;;;;;;;13.77;6.95;;;16.70;64.40;;;;;;5072367;28;20426;-76
2021/07/19 01:48:34;;;;;;;10.23;7.20;;;16.70;62.90;;;;;;5072002;28;20390;-76
2021/07/19 01:51:01;;;;;;;14.82;7.30;;;16.90;59.60;;;;;;5072039;28;20400;-77
2021/07/19 01:53:30;;;;;;;15.02;7.20;;;16.80;58.60;;;;;;5072539;28;20390;-75
2021/07/19 01:55:58;;;;;;;9.33;6.53;;;17.00;56.30;;;;;;5073029;28;20475;-77
2021/07/19 01:58:25;;;;;;;12.65;7.57;;;17.10;55.00;;;;;;5073824;28;20474;-77
2021/07/19 02:00:51;;;;;;;11.05;7.30;;;17.00;55.60;;;;;;5077090;28;20788;-76
2021/07/19 02:03:16;;;;;;;10.50;6.67;;;16.80;56.20;;;;;;5073527;28;20916;-75
2021/07/19 02:05:43;;;;;;;11.13;7.50;;;16.70;58.20;;;;;;5072464;28;20395;-77
2021/07/19 02:08:14;;;;;;;15.70;7.97;;;16.70;59.80;;;;;;5077710;28;20458;-76
2021/07/19 02:10:40;;;;;;;11.55;6.95;;;16.70;60.00;;;;;;5075338;28;20446;-76
2021/07/19 02:13:09;;;;;;;12.38;7.10;;;16.60;61.10;;;;;;5076477;28;20412;-77
2021/07/19 02:15:37;;;;;;;13.05;7.80;;;16.50;61.50;;;;;;5071992;28;20475;-76
2021/07/19 02:18:04;;;;;;;10.43;6.90;;;16.60;61.70;;;;;;5071927;28;20453;-76
2021/07/19 02:20:32;;;;;;;10.32;6.88;;;16.70;60.50;;;;;;5072018;28;20490;-75
2021/07/19 02:23:01;;;;;;;11.25;6.70;;;16.70;58.90;;;;;;5073048;28;20407;-77
2021/07/19 02:25:27;;;;;;;12.65;7.20;;;16.80;57.20;;;;;;5063779;28;20399;-75
2021/07/19 02:27:54;;;;;;;10.90;7.50;;;16.80;56.60;;;;;;5065562;28;20418;-76
2021/07/19 02:30:22;;;;;;;11.70;7.30;;;16.90;56.70;;;;;;5072551;28;20383;-77
2021/07/19 02:32:51;;;;;;;11.40;6.95;;;16.80;57.10;;;;;;5074065;28;20760;-76
2021/07/19 02:35:17;;;;;;;11.68;7.50;;;16.80;57.10;;;;;;5063516;28;20482;-78
2021/07/19 02:37:45;;;;;;;12.27;7.20;;;16.80;57.50;;;;;;5071446;28;20440;-74
2021/07/19 02:40:13;;;;;;;13.13;7.18;;;16.70;58.90;;;;;;5071673;28;20387;-77
2021/07/19 02:42:45;;;;;;;10.85;7.50;;;16.60;59.40;;;;;;5071006;28;20492;-75
2021/07/19 02:45:14;;;;;;;11.43;7.30;;;16.60;58.60;;;;;;5071479;28;20388;-75
2021/07/19 02:47:45;;;;;;;11.98;7.93;;;16.50;59.40;;;;;;5070820;28;20912;-74
2021/07/19 02:50:13;;;;;;;11.50;7.60;;;16.40;61.10;;;;;;5063853;28;20395;-76
2021/07/19 02:52:39;;;;;;;11.60;7.32;;;16.50;60.90;;;;;;5071436;28;20384;-75
2021/07/19 02:55:07;;;;;;;14.23;7.88;;;16.40;61.60;;;;;;5070745;28;20449;-75
2021/07/19 02:57:37;;;;;;;16.10;7.35;;;16.40;62.30;;;;;;5069796;28;20396;-76
2021/07/19 03:00:10;;;;;;;12.10;7.72;;;16.40;61.50;;;;;;5070044;28;20452;-77
2021/07/19 03:02:56;;;;;;;12.95;8.10;;;16.30;61.70;;;;;;5070206;28;20419;-75
2021/07/19 03:05:28;;;;;;;12.50;8.95;;;16.30;61.00;;;;;;5069800;28;20987;-74
2021/07/19 03:07:57;;;;;;;16.75;8.55;;;16.40;60.70;;;;;;5070056;28;20400;-75
2021/07/19 03:10:25;;;;;;;15.93;8.43;;;16.40;60.30;;;;;;5070965;28;20394;-76
2021/07/19 03:12:57;;;;;;;14.27;8.60;;;16.30;61.10;;;;;;5070265;28;20467;-75
2021/07/19 03:15:27;;;;;;;12.02;8.02;;;16.30;61.40;;;;;;5070546;28;20503;-76
2021/07/19 03:17:53;;;;;;;14.65;8.50;;;16.30;60.60;;;;;;5072173;28;20904;-76
2021/07/19 03:20:19;;;;;;;16.55;8.30;;;16.40;60.90;;;;;;5074515;28;20419;-74
2021/07/19 03:22:47;;;;;;;15.05;7.90;;;16.50;58.60;;;;;;5070742;28;20470;-75
2021/07/19 03:25:14;;;;;;;16.50;8.25;;;16.50;58.10;;;;;;5071104;28;20394;-76
2021/07/19 03:27:41;;;;;;;16.40;8.77;;;16.40;58.40;;;;;;5072412;28;20391;-76
2021/07/19 03:30:08;;;;;;;17.20;8.85;;;16.40;59.50;;;;;;5054546;28;20488;-77
2021/07/19 03:32:35;;;;;;;16.25;8.32;;;16.30;59.50;;;;;;5056779;28;20443;-78
2021/07/19 03:35:05;;;;;;;15.95;9.15;;;16.30;60.00;;;;;;5057281;28;20385;-75
2021/07/19 03:37:31;;;;;;;12.38;8.65;;;16.30;60.80;;;;;;5071632;28;20384;-76
2021/07/19 03:39:58;;;;;;;18.75;9.57;;;16.20;61.30;;;;;;5071902;28;20384;-76
2021/07/19 03:42:25;;;;;;;16.98;9.18;;;16.30;60.60;;;;;;5071227;28;20395;-75
2021/07/19 03:44:51;;;;;;;15.00;8.40;;;16.20;61.50;;;;;;5071585;28;20437;-75
2021/07/19 03:47:18;;;;;;;14.27;9.37;;;16.10;62.00;;;;;;5069958;28;20379;-75
2021/07/19 03:49:45;;;;;;;14.68;8.30;;;16.10;63.20;;;;;;5072923;28;20388;-75
2021/07/19 03:52:12;;;;;;;13.82;9.07;;;16.20;61.10;;;;;;5073916;28;20399;-76
2021/07/19 03:54:37;;;;;;;15.10;9.00;;;16.30;59.50;;;;;;5074840;28;20394;-74
2021/07/19 03:57:04;;;;;;;15.75;8.65;;;16.30;59.30;;;;;;5073856;28;20392;-76
2021/07/19 03:59:32;;;;;;;16.77;9.27;;;16.20;59.90;;;;;;5075730;28;20398;-75
2021/07/19 04:02:08;;;;;;;17.05;9.70;;;16.20;60.10;;;;;;5075516;28;20388;-75
2021/07/19 04:04:40;;;;;;;17.30;9.60;;;16.20;60.50;;;;;;5076507;28;20415;-76
2021/07/19 04:07:08;;;;;;;14.65;8.88;;;16.00;61.70;;;;;;5075691;28;20395;-76
2021/07/19 04:09:37;;;;;;;17.02;9.13;;;16.20;61.60;;;;;;5075550;28;20860;-76
2021/07/19 04:12:03;;;;;;;16.70;9.60;;;16.20;60.60;;;;;;5074210;28;20387;-76
2021/07/19 04:14:31;;;;;;;14.60;8.82;;;16.30;60.10;;;;;;5077540;28;20745;-74
2021/07/19 04:16:56;;;;;;;15.98;9.65;;;16.20;60.10;;;;;;5076366;28;20475;-77
2021/07/19 04:19:25;;;;;;;16.38;8.85;;;16.30;59.70;;;;;;5075317;28;20411;-76
2021/07/19 04:21:52;;;;;;;15.80;9.07;;;16.30;60.90;;;;;;5075033;28;20403;-76
2021/07/19 04:24:17;;;;;;;13.55;9.15;;;16.30;59.60;;;;;;5075000;28;20930;-76
2021/07/19 04:26:43;;;;;;;17.97;9.27;;;16.40;58.60;;;;;;5071205;28;20605;-77
2021/07/19 04:29:09;;;;;;;15.57;9.37;;;16.60;57.10;;;;;;5054200;28;20396;-75
2021/07/19 04:31:34;;;;;;;13.73;9.10;;;16.60;55.50;;;;;;5054684;28;20385;-77
2021/07/19 04:34:00;;;;;;;16.97;9.50;;;16.80;54.60;;;;;;5073455;28;20745;-77
2021/07/19 04:36:28;;;;;;;15.02;9.40;;;16.90;53.10;;;;;;5064123;28;20392;-77
2021/07/19 04:38:54;;;;;;;16.42;8.50;;;17.00;52.10;;;;;;5054488;28;20397;-75
2021/07/19 04:41:20;;;;;;;13.75;8.98;;;17.10;51.50;;;;;;5070153;28;20395;-76
2021/07/19 04:43:46;;;;;;;12.43;9.20;;;17.10;50.10;;;;;;5074265;28;20457;-76
2021/07/19 04:46:12;;;;;;;14.40;8.52;;;17.20;49.80;;;;;;5073878;28;20494;-76
2021/07/19 04:48:38;;;;;;;15.37;9.50;;;17.10;50.40;;;;;;5076486;28;20414;-76
2021/07/19 04:51:04;;;;;;;14.32;9.30;;;17.10;50.80;;;;;;5076380;28;20453;-76
2021/07/19 04:53:30;;;;;;;17.70;10.15;;;17.10;50.90;;;;;;5073537;28;20388;-76
2021/07/19 04:55:58;;;;;;;15.57;10.35;;;17.10;49.80;;;;;;5074525;28;20518;-76
2021/07/19 04:58:27;;;;;;;16.00;9.10;;;17.20;49.80;;;;;;5073770;28;20391;-76
2021/07/19 05:01:03;;;;;;;15.63;9.88;;;17.20;49.50;;;;;;5073310;28;20383;-74
2021/07/19 05:03:34;;;;;;;16.47;9.73;;;17.30;49.20;;;;;;5073513;28;20479;-75
2021/07/19 05:06:01;;;;;;;20.10;9.98;;;17.30;49.10;;;;;;5071411;28;20380;-75
2021/07/19 05:08:28;;;;;;;13.95;9.73;;;17.20;49.50;;;;;;5072681;28;20454;-77
2021/07/19 05:10:56;;;;;;;17.85;9.70;;;17.30;50.20;;;;;;5071915;28;20392;-76
2021/07/19 05:13:22;;;;;;;15.65;10.23;;;17.40;48.50;;;;;;5073465;28;20388;-75
2021/07/19 05:15:48;;;;;;;18.33;10.07;;;17.50;48.80;;;;;;5074514;28;20783;-76
2021/07/19 05:18:17;;;;;;;19.77;10.27;;;17.60;48.20;;;;;;5075989;28;20433;-76
2021/07/19 05:20:44;;;;;;;16.10;9.73;;;17.80;46.70;;;;;;5077592;28;20383;-76
2021/07/19 05:23:10;;;;;;;17.45;9.90;;;18.00;45.40;;;;;;5076214;28;20481;-76
2021/07/19 05:25:36;;;;;;;19.27;9.90;;;18.10;44.30;;;;;;5073969;28;20393;-75
2021/07/19 05:28:12;;;;;;;18.40;10.40;;;18.10;43.80;;;;;;5070933;28;20406;-76
2021/07/19 05:30:42;;;;;;;14.52;8.93;;;18.30;42.90;;;;;;5075782;28;20407;-76
2021/07/19 05:33:09;;;;;;;14.23;9.82;;;18.30;42.50;;;;;;5065820;28;20432;-76
2021/07/19 05:35:35;;;;;;;17.02;9.70;;;18.30;42.40;;;;;;5076149;28;20387;-77
2021/07/19 05:38:01;;;;;;;18.80;10.95;;;18.30;42.20;;;;;;5077232;28;20390;-77
2021/07/19 05:40:27;;;;;;;16.17;10.60;;;18.30;42.50;;;;;;5076293;28;20406;-75
2021/07/19 05:42:52;;;;;;;19.45;10.65;;;18.20;42.50;;;;;;5075826;28;20403;-76
2021/07/19 05:45:18;;;;;;;26.13;11.05;;;18.20;42.60;;;;;;5075048;28;20387;-75
2021/07/19 05:47:44;;;;;;;23.00;11.02;;;18.30;42.00;;;;;;5074380;28;20398;-76
2021/07/19 05:50:11;;;;;;;16.50;10.70;;;18.40;42.20;;;;;;5071940;28;20388;-76
2021/07/19 05:52:37;;;;;;;23.13;12.93;;;18.50;41.80;;;;;;5071398;28;20426;-76
2021/07/19 05:55:04;;;;;;;20.77;10.60;;;18.70;41.30;;;;;;5070235;28;20416;-76
2021/07/19 05:57:30;;;;;;;21.60;12.02;;;18.90;40.10;;;;;;5072192;28;20419;-78
2021/07/19 05:59:59;;;;;;;90.88;54.80;;;19.00;39.40;;;;;;5072630;28;20444;-75
2021/07/19 06:02:26;;;;;;;20.95;13.70;;;19.10;40.60;;;;;;5072808;28;20376;-75
2021/07/19 06:04:52;;;;;;;18.88;10.70;;;19.30;39.80;;;;;;5075384;28;20479;-77
2021/07/19 06:07:18;;;;;;;19.77;11.40;;;19.50;38.20;;;;;;5073857;28;20782;-76
2021/07/19 06:09:43;;;;;;;18.55;10.68;;;19.70;37.20;;;;;;5074996;28;20384;-77
2021/07/19 06:12:10;;;;;;;16.93;10.33;;;19.80;36.00;;;;;;5076759;28;20392;-77
2021/07/19 06:14:36;;;;;;;20.83;11.40;;;19.90;36.30;;;;;;5073774;28;20395;-76
2021/07/19 06:17:02;;;;;;;19.53;12.07;;;19.90;36.70;;;;;;5075014;28;20399;-76
2021/07/19 06:19:27;;;;;;;19.87;10.90;;;20.00;36.10;;;;;;5071895;28;20410;-78
2021/07/19 06:21:53;;;;;;;20.13;11.48;;;20.30;34.60;;;;;;5063167;28;20417;-77
2021/07/19 06:24:19;;;;;;;17.93;11.17;;;20.40;34.60;;;;;;5061166;28;20409;-76
2021/07/19 06:26:44;;;;;;;15.10;9.90;;;20.50;34.80;;;;;;5054176;28;20414;-76
2021/07/19 06:29:10;;;;;;;15.35;9.55;;;20.80;33.10;;;;;;5064578;28;20410;-76
2021/07/19 06:31:35;;;;;;;18.93;10.73;;;20.80;33.20;;;;;;5069657;28;20406;-75
2021/07/19 06:34:01;;;;;;;19.03;10.60;;;20.80;32.90;;;;;;5070805;28;20395;-77
2021/07/19 06:36:26;;;;;;;17.98;10.23;;;20.70;33.10;;;;;;5066301;28;21195;-76
2021/07/19 06:38:52;;;;;;;17.57;10.70;;;20.70;33.00;;;;;;5061421;28;20392;-78
2021/07/19 06:41:18;;;;;;;18.07;10.40;;;20.70;32.70;;;;;;5063115;28;20385;-76
2021/07/19 06:43:43;;;;;;;16.63;9.82;;;20.60;33.10;;;;;;5070139;28;20408;-77
2021/07/19 06:46:09;;;;;;;16.83;11.20;;;20.50;33.10;;;;;;5064824;28;20389;-76
2021/07/19 06:48:35;;;;;;;18.00;10.57;;;20.50;34.00;;;;;;5055450;28;20396;-75
2021/07/19 06:51:01;;;;;;;18.08;11.30;;;20.60;33.50;;;;;;5054162;28;20488;-76
2021/07/19 06:53:30;;;;;;;17.98;10.65;;;20.80;33.20;;;;;;5063199;28;20799;-77
2021/07/19 06:55:55;;;;;;;21.63;12.40;;;20.90;31.70;;;;;;5069193;28;20815;-76
2021/07/19 06:58:21;;;;;;;19.30;11.27;;;20.90;32.00;;;;;;5065468;28;20393;-75
2021/07/19 07:00:48;;;;;;;19.07;10.93;;;20.90;31.80;;;;;;5060103;28;20536;-77
2021/07/19 07:03:14;;;;;;;17.27;10.38;;;20.90;31.80;;;;;;5063729;28;20761;-76
2021/07/19 07:05:40;;;;;;;18.70;11.32;;;21.00;32.00;;;;;;5063240;28;20435;-76
2021/07/19 07:08:05;;;;;;;21.52;11.40;;;21.00;32.10;;;;;;5067100;28;20396;-76
2021/07/19 07:10:31;;;;;;;21.83;11.60;;;20.80;32.10;;;;;;5070617;28;20484;-74
2021/07/19 07:12:56;;;;;;;21.87;11.90;;;20.90;32.70;;;;;;5072376;28;20400;-75
2021/07/19 07:15:22;;;;;;;20.90;12.40;;;21.00;32.10;;;;;;5067919;28;20451;-75
2021/07/19 07:17:50;;;;;;;26.70;13.10;;;21.20;31.20;;;;;;5070776;28;20403;-74
2021/07/19 07:20:16;;;;;;;19.13;11.97;;;21.30;30.30;;;;;;5064214;28;20540;-77
2021/07/19 07:22:42;;;;;;;20.27;11.50;;;21.40;30.80;;;;;;5073864;28;20442;-78
2021/07/19 07:25:09;;;;;;;21.08;11.73;;;21.60;29.40;;;;;;5073150;28;20401;-77
2021/07/19 07:27:36;;;;;;;18.60;11.73;;;21.80;29.10;;;;;;5071632;28;20419;-77
2021/07/19 07:30:07;;;;;;;18.50;11.82;;;21.90;27.40;;;;;;5073729;28;20391;-77
2021/07/19 07:32:34;;;;;;;21.20;11.85;;;22.00;28.00;;;;;;5083971;28;20436;-77
2021/07/19 07:35:02;;;;;;;22.33;11.93;;;22.20;26.70;;;;;;5081865;28;20400;-79
2021/07/19 07:37:28;;;;;;;20.15;12.15;;;22.20;27.10;;;;;;5075252;28;20403;-78
2021/07/19 07:39:53;;;;;;;18.77;11.38;;;22.30;27.40;;;;;;5080573;28;20456;-77
2021/07/19 07:42:19;;;;;;;17.10;11.40;;;22.60;25.80;;;;;;5082623;28;20847;-77
2021/07/19 07:44:44;;;;;;;15.80;11.07;;;22.20;25.70;;;;;;5089095;28;20404;-77
2021/07/19 07:47:10;;;;;;;16.85;10.63;;;21.90;26.90;;;;;;5091134;28;20426;-79
2021/07/19 07:49:39;;;;;;;16.52;11.30;;;21.80;27.40;;;;;;5082971;28;20433;-79
2021/07/19 07:52:05;;;;;;;17.23;11.43;;;21.70;27.50;;;;;;5084526;28;20411;-77
2021/07/19 07:54:31;;;;;;;16.30;11.38;;;21.90;26.50;;;;;;5079731;28;20399;-79
2021/07/19 07:56:56;;;;;;;18.00;12.00;;;22.10;25.10;;;;;;5083380;28;20395;-76
2021/07/19 07:59:22;;;;;;;23.00;11.87;;;22.10;25.40;;;;;;5084066;28;20391;-79
2021/07/19 08:01:47;;;;;;;24.27;11.80;;;22.20;24.80;;;;;;5086941;28;20413;-75
2021/07/19 08:04:13;;;;;;;15.60;10.67;;;21.80;24.20;;;;;;5089627;28;20807;-76
2021/07/19 08:06:38;;;;;;;19.13;12.13;;;21.60;25.70;;;;;;5082872;28;20758;-76
2021/07/19 08:09:04;;;;;;;20.50;11.80;;;21.60;26.30;;;;;;5073116;28;20393;-76
2021/07/19 08:11:30;;;;;;;21.60;11.93;;;21.80;25.20;;;;;;5078189;28;20422;-78
2021/07/19 08:13:55;;;;;;;17.30;11.50;;;21.90;25.50;;;;;;5078512;28;20883;-77
2021/07/19 08:16:21;;;;;;;21.80;11.60;;;22.10;24.50;;;;;;5077997;28;20419;-79
2021/07/19 08:18:47;;;;;;;16.17;10.87;;;22.30;24.40;;;;;;5076024;28;20466;-77
2021/07/19 08:21:12;;;;;;;19.02;11.57;;;22.40;23.90;;;;;;5076057;28;20388;-74
2021/07/19 08:23:38;;;;;;;19.85;11.48;;;22.50;24.80;;;;;;5078456;28;20411;-78
2021/07/19 08:26:03;;;;;;;18.90;11.47;;;22.60;24.40;;;;;;5069924;28;20421;-77
2021/07/19 08:28:29;;;;;;;16.45;12.07;;;22.70;23.60;;;;;;5074320;28;20481;-77
2021/07/19 08:30:54;;;;;;;20.47;12.10;;;22.60;22.90;;;;;;5078203;28;20441;-75
2021/07/19 08:33:20;;;;;;;19.27;11.53;;;22.40;23.70;;;;;;5072859;28;20511;-80
2021/07/19 08:35:46;;;;;;;22.25;12.63;;;21.90;24.60;;;;;;5059801;28;20712;-76
2021/07/19 08:38:12;;;;;;;21.45;12.65;;;21.80;25.30;;;;;;5073983;28;20778;-77
2021/07/19 08:40:38;;;;;;;19.33;12.38;;;21.90;25.50;;;;;;5056974;28;20423;-78
2021/07/19 08:43:06;;;;;;;21.75;13.60;;;22.00;25.70;;;;;;5057513;28;20410;-78
2021/07/19 08:45:32;;;;;;;21.73;12.55;;;22.20;24.70;;;;;;5057382;28;20382;-78
2021/07/19 08:47:58;;;;;;;18.33;12.20;;;22.20;24.30;;;;;;5071654;28;20414;-78
2021/07/19 08:50:24;;;;;;;20.83;13.20;;;22.20;24.40;;;;;;5078417;28;20391;-78
2021/07/19 08:52:52;;;;;;;20.43;13.50;;;22.30;24.80;;;;;;5082387;28;20505;-76
2021/07/19 08:55:19;;;;;;;22.92;13.73;;;22.20;23.70;;;;;;5089883;28;20387;-76
2021/07/19 08:57:49;;;;;;;20.35;13.77;;;21.80;24.60;;;;;;5085260;28;20445;-79
2021/07/19 09:00:16;;;;;;;26.42;14.60;;;21.60;25.50;;;;;;5077884;28;20387;-78
2021/07/19 09:02:42;;;;;;;23.20;13.97;;;21.30;26.10;;;;;;5079426;28;20388;-76
2021/07/19 09:05:09;;;;;;;21.75;13.73;;;21.40;27.10;;;;;;5085395;28;20454;-77
2021/07/19 09:07:34;;;;;;;18.10;12.73;;;21.50;26.60;;;;;;5085400;28;20482;-78
2021/07/19 09:10:00;;;;;;;18.10;11.20;;;21.40;27.10;;;;;;5082134;28;20474;-76
2021/07/19 09:12:35;;;;;;;23.75;13.55;;;21.30;26.60;;;;;;5080766;28;20383;-76
2021/07/19 09:15:01;;;;;;;21.92;12.98;;;21.20;26.50;;;;;;5085282;28;20414;-77
2021/07/19 09:17:28;;;;;;;18.92;12.73;;;21.40;27.60;;;;;;5080692;28;20768;-77
2021/07/19 09:19:55;;;;;;;22.17;13.07;;;21.80;25.30;;;;;;5075008;28;20892;-77
2021/07/19 09:22:24;;;;;;;19.77;12.80;;;22.20;24.10;;;;;;5071677;28;20442;-77
2021/07/19 09:24:49;;;;;;;19.02;12.10;;;22.50;23.20;;;;;;5073384;28;20403;-76
2021/07/19 09:27:20;;;;;;;20.40;12.27;;;22.70;22.70;;;;;;5063077;28;20529;-77
2021/07/19 09:29:47;;;;;;;21.45;13.43;;;22.90;22.60;;;;;;5069617;28;20869;-77
2021/07/19 09:32:12;;;;;;;22.13;14.60;;;23.10;21.50;;;;;;5072991;28;20392;-77
2021/07/19 09:34:38;;;;;;;22.65;15.30;;;23.30;21.20;;;;;;5066680;28;20456;-77
2021/07/19 09:37:05;;;;;;;22.30;14.82;;;23.20;19.20;;;;;;5077381;28;20395;-77
2021/07/19 09:39:38;;;;;;;27.58;14.93;;;23.00;20.90;;;;;;5076617;28;20467;-76
2021/07/19 09:42:27;;;;;;;25.23;14.93;;;23.10;20.60;;;;;;5074244;28;20387;-77
2021/07/19 09:44:57;;;;;;;20.53;14.30;;;23.10;20.80;;;;;;5073578;28;20387;-77
2021/07/19 09:47:34;;;;;;;23.27;14.55;;;23.40;19.80;;;;;;5072657;28;20474;-77
2021/07/19 09:50:06;;;;;;;25.52;16.33;;;23.40;19.30;;;;;;5073922;28;20394;-77
2021/07/19 09:52:34;;;;;;;23.50;15.90;;;23.30;19.00;;;;;;5077527;28;20379;-76
2021/07/19 09:55:00;;;;;;;24.05;16.25;;;22.90;19.90;;;;;;5087332;28;20371;-75
2021/07/19 09:57:25;;;;;;;22.80;15.53;;;23.10;20.00;;;;;;5095508;28;20380;-76
2021/07/19 09:59:55;;;;;;;23.53;15.50;;;23.10;19.50;;;;;;5078000;28;20392;-80
2021/07/19 10:02:39;;;;;;;24.88;16.00;;;22.90;20.10;;;;;;5075138;28;20498;-78
2021/07/19 10:05:10;;;;;;;25.67;15.98;;;22.80;20.50;;;;;;5075943;28;20403;-79
2021/07/19 10:07:43;;;;;;;28.70;16.55;;;22.30;21.90;;;;;;5075507;28;20435;-77
2021/07/19 10:10:10;;;;;;;27.80;15.60;;;22.00;22.00;;;;;;5074222;28;20484;-77
2021/07/19 10:12:36;;;;;;;23.60;15.40;;;21.70;23.40;;;;;;5073292;28;20903;-78
2021/07/19 10:15:06;;;;;;;27.05;15.75;;;21.70;23.40;;;;;;5065328;28;20447;-77
2021/07/19 10:17:34;;;;;;;29.50;17.10;;;21.80;23.00;;;;;;5068621;28;20483;-76
2021/07/19 10:20:00;;;;;;;24.85;16.17;;;21.60;23.40;;;;;;5082731;28;20388;-77
2021/07/19 10:22:25;;;;;;;27.17;17.00;;;21.50;23.70;;;;;;5084999;28;20410;-76
2021/07/19 10:24:51;;;;;;;24.58;16.05;;;21.80;24.00;;;;;;5085828;28;20437;-77
2021/07/19 10:27:27;;;;;;;22.85;15.43;;;22.30;21.80;;;;;;5074685;28;20389;-77
2021/07/19 10:29:52;;;;;;;21.95;15.32;;;22.40;21.60;;;;;;5071582;28;20480;-77
2021/07/19 10:32:24;;;;;;;23.80;14.87;;;22.50;20.20;;;;;;5073448;28;20783;-78
2021/07/19 10:34:54;;;;;;;21.55;14.45;;;22.70;20.00;;;;;;5063825;28;20482;-79
2021/07/19 10:37:27;;;;;;;27.40;14.13;;;23.10;19.70;;;;;;5063509;28;20921;-79
2021/07/19 10:39:56;;;;;;;20.02;13.30;;;23.10;18.80;;;;;;5071237;28;21197;-78
2021/07/19 10:42:33;;;;;;;24.02;13.07;;;22.50;19.70;;;;;;5071768;28;20406;-76
2021/07/19 10:45:09;;;;;;;22.67;13.77;;;22.40;20.70;;;;;;5072112;28;20392;-76
2021/07/19 10:47:46;;;;;;;22.77;13.90;;;22.80;21.00;;;;;;5072987;28;20372;-78
2021/07/19 10:50:16;;;;;;;21.85;14.25;;;22.80;20.40;;;;;;5072274;28;20379;-75
2021/07/19 10:52:42;;;;;;;23.25;13.00;;;23.30;20.00;;;;;;5073378;28;20387;-77
2021/07/19 10:55:10;;;;;;;23.23;13.07;;;23.60;19.80;;;;;;5071363;28;20745;-76
2021/07/19 10:57:40;;;;;;;20.02;13.60;;;24.10;18.60;;;;;;5072141;28;20472;-76
2021/07/19 11:00:09;;;;;;;17.38;13.05;;;24.50;17.20;;;;;;5072275;28;20468;-76
2021/07/19 11:02:35;;;;;;;21.27;14.00;;;24.70;17.20;;;;;;5070144;28;20407;-76
2021/07/19 11:05:01;;;;;;;19.85;13.50;;;24.90;15.60;;;;;;5072442;28;20379;-75
2021/07/19 11:07:41;;;;;;;21.80;13.30;;;25.00;15.80;;;;;;5072128;28;20392;-76
2021/07/19 11:10:19;;;;;;;22.00;13.93;;;25.20;16.00;;;;;;5078696;28;20423;-77
2021/07/19 11:12:58;;;;;;;22.15;13.63;;;25.40;15.90;;;;;;5075692;28;20403;-76
2021/07/19 11:15:46;;;;;;;18.67;12.57;;;25.70;14.20;;;;;;5074865;28;20857;-77
2021/07/19 11:18:23;;;;;;;19.15;13.75;;;25.60;13.10;;;;;;5062613;28;20407;-76
2021/07/19 11:20:50;;;;;;;20.75;14.05;;;25.60;14.20;;;;;;5068354;28;20443;-75
2021/07/19 11:23:30;;;;;;;20.00;12.83;;;25.60;14.30;;;;;;5057955;28;20412;-78
2021/07/19 11:25:56;;;;;;;20.47;12.90;;;25.10;13.70;;;;;;5063235;28;20391;-75
2021/07/19 11:28:24;;;;;;;20.90;13.45;;;24.50;15.90;;;;;;5055150;28;20572;-75
2021/07/19 11:31:12;;;;;;;18.75;13.15;;;24.60;16.30;;;;;;5069374;28;20403;-74
2021/07/19 11:33:48;;;;;;;21.07;13.30;;;24.70;17.00;;;;;;5068986;28;20478;-75
2021/07/19 11:36:16;;;;;;;21.65;13.50;;;24.90;16.10;;;;;;5069590;28;20404;-75
2021/07/19 11:38:42;;;;;;;17.90;12.63;;;25.20;14.80;;;;;;5070483;28;20391;-75
2021/07/19 11:41:38;;;;;;;21.25;13.80;;;25.10;14.90;;;;;;5065588;28;20452;-76
2021/07/19 11:44:04;;;;;;;20.55;13.35;;;25.00;15.30;;;;;;5053030;28;20412;-76
2021/07/19 11:46:39;;;;;;;20.38;13.30;;;25.30;14.50;;;;;;5071015;28;20860;-75
2021/07/19 11:49:09;;;;;;;21.67;12.80;;;25.10;14.80;;;;;;5070286;28;20871;-76
2021/07/19 11:51:44;;;;;;;19.27;13.30;;;25.00;15.40;;;;;;5072641;28;20396;-76
2021/07/19 11:54:12;;;;;;;19.85;12.98;;;25.00;14.80;;;;;;5070395;28;20407;-76
2021/07/19 11:56:48;;;;;;;19.17;12.80;;;25.10;15.30;;;;;;5073717;28;21146;-76
2021/07/19 11:59:20;;;;;;;19.15;13.15;;;25.30;14.80;;;;;;5074744;28;20380;-76
2021/07/19 12:01:53;;;;;;;20.87;13.80;;;25.30;14.40;;;;;;5074340;28;20443;-76
2021/07/19 12:04:19;;;;;;;20.73;13.60;;;24.90;15.10;;;;;;5074496;28;20908;-75
2021/07/19 12:06:50;;;;;;;20.90;13.70;;;25.20;14.60;;;;;;5072526;28;20431;-74
2021/07/19 12:09:16;;;;;;;19.63;13.98;;;25.00;14.60;;;;;;5058387;28;20942;-76
2021/07/19 12:11:41;;;;;;;20.90;13.37;;;25.20;14.20;;;;;;5068183;28;20479;-74
2021/07/19 12:14:10;;;;;;;17.83;12.60;;;25.70;13.30;;;;;;5070967;28;20398;-75
2021/07/19 12:16:40;;;;;;;25.77;13.90;;;25.30;14.10;;;;;;5072368;28;20415;-74
2021/07/19 12:19:08;;;;;;;20.77;13.98;;;24.90;15.20;;;;;;5070408;28;20403;-74
2021/07/19 12:21:43;;;;;;;19.70;13.13;;;25.20;15.70;;;;;;5069035;28;20765;-75
2021/07/19 12:24:11;;;;;;;27.45;13.65;;;25.60;14.10;;;;;;5068256;28;20412;-75
2021/07/19 12:26:41;;;;;;;19.48;11.93;;;25.40;14.70;;;;;;5063553;28;20407;-78
2021/07/19 12:29:18;;;;;;;18.45;13.25;;;25.20;14.70;;;;;;5070820;28;20438;-75
2021/07/19 12:31:44;;;;;;;19.58;12.73;;;25.30;14.60;;;;;;5068138;28;20461;-76
2021/07/19 12:34:14;;;;;;;21.73;12.93;;;25.40;14.00;;;;;;5073041;28;20388;-76
2021/07/19 12:36:45;;;;;;;21.05;14.63;;;25.70;13.80;;;;;;5071906;28;20407;-77